createdAt,value
2022-11-05T00:01:42.699Z,24.25
2022-11-05T00:04:30.968Z,21.73
2022-11-05T00:07:18.898Z,21.23
2022-11-05T00:09:46.417Z,22.77
2022-11-05T00:12:32.309Z,22.30
2022-11-05T00:15:17.754Z,20.27
2022-11-05T00:17:44.767Z,21.17
2022-11-05T00:20:13.708Z,22.02
2022-11-05T00:22:59.275Z,20.90
2022-11-05T00:25:26.474Z,23.23
2022-11-05T00:27:53.480Z,22.88
2022-11-05T00:30:25.308Z,21.15
2022-11-05T00:32:52.625Z,18.20
2022-11-05T00:35:21.631Z,20.70
2022-11-05T00:37:50.383Z,21.02
2022-11-05T00:40:17.864Z,21.10
2022-11-05T00:43:03.482Z,22.75
2022-11-05T00:45:30.768Z,22.02
2022-11-05T00:48:16.515Z,22.30
2022-11-05T00:50:43.468Z,20.65
2022-11-05T00:53:10.713Z,19.52
2022-11-05T00:55:42.258Z,18.95
2022-11-05T00:58:19.752Z,20.33
2022-11-05T01:00:54.171Z,21.65
2022-11-05T01:03:22.998Z,20.30
2022-11-05T01:05:52.628Z,17.92
2022-11-05T01:08:20.499Z,20.55
2022-11-05T01:10:49.254Z,18.85
2022-11-05T01:13:21.067Z,21.48
2022-11-05T01:15:48.555Z,19.25
2022-11-05T01:18:15.440Z,20.00
2022-11-05T01:20:42.547Z,18.67
2022-11-05T01:23:13.504Z,17.65
2022-11-05T01:25:41.825Z,22.10
2022-11-05T01:28:09.683Z,17.27
2022-11-05T01:30:36.932Z,18.83
2022-11-05T01:33:03.857Z,20.23
2022-11-05T01:35:30.805Z,18.65
2022-11-05T01:37:57.660Z,17.70
2022-11-05T01:40:24.917Z,16.60
2022-11-05T01:42:51.784Z,19.25
2022-11-05T01:45:20.298Z,17.10
2022-11-05T01:47:57.938Z,18.48
2022-11-05T01:50:39.925Z,16.50
2022-11-05T01:53:17.309Z,17.67
2022-11-05T01:55:55.109Z,17.40
2022-11-05T01:58:22.963Z,16.63
2022-11-05T02:00:49.876Z,15.18
2022-11-05T02:03:16.981Z,16.50
2022-11-05T02:05:43.885Z,16.77
2022-11-05T02:08:13.673Z,15.63
2022-11-05T02:10:40.996Z,15.27
2022-11-05T02:13:08.132Z,16.33
2022-11-05T02:16:05.565Z,17.52
2022-11-05T02:18:39.136Z,15.48
2022-11-05T02:21:44.919Z,13.77
2022-11-05T02:24:42.966Z,14.48
2022-11-05T02:27:48.604Z,14.75
2022-11-05T02:30:36.930Z,14.57
2022-11-05T02:33:41.598Z,11.65
2022-11-05T02:36:20.486Z,15.18
2022-11-05T02:39:11.875Z,12.65
2022-11-05T02:41:47.424Z,13.67
2022-11-05T02:44:31.214Z,15.02
2022-11-05T02:47:36.051Z,12.10
2022-11-05T02:50:33.876Z,13.75
2022-11-05T02:53:11.273Z,12.30
2022-11-05T02:55:41.976Z,13.20
2022-11-05T02:58:08.939Z,14.10
2022-11-05T03:00:55.192Z,11.93
2022-11-05T03:03:22.101Z,9.95
2022-11-05T03:06:00.630Z,12.65
2022-11-05T03:08:43.872Z,10.90
2022-11-05T03:11:18.090Z,10.13
2022-11-05T03:13:53.300Z,10.57
2022-11-05T03:16:28.739Z,10.70
2022-11-05T03:19:34.199Z,8.55
2022-11-05T03:22:06.663Z,12.35
2022-11-05T03:24:34.691Z,12.70
2022-11-05T03:27:07.771Z,11.38
2022-11-05T03:29:37.634Z,9.63
2022-11-05T03:32:05.084Z,10.57
2022-11-05T03:34:36.830Z,11.45
2022-11-05T03:37:03.891Z,11.23
2022-11-05T03:39:33.094Z,11.45
2022-11-05T03:42:00.191Z,11.15
2022-11-05T03:44:29.563Z,11.90
2022-11-05T03:47:00.913Z,12.90
2022-11-05T03:49:30.892Z,9.85
2022-11-05T03:52:18.208Z,10.57
2022-11-05T03:54:45.581Z,10.43
2022-11-05T03:57:26.341Z,10.73
2022-11-05T03:59:53.247Z,10.27
2022-11-05T04:02:22.178Z,9.68
2022-11-05T04:04:49.333Z,9.10
2022-11-05T04:07:34.519Z,10.52
2022-11-05T04:10:20.041Z,9.45
2022-11-05T04:13:05.794Z,10.90
2022-11-05T04:15:55.311Z,9.38
2022-11-05T04:18:22.319Z,12.10
2022-11-05T04:21:07.642Z,9.48
2022-11-05T04:23:53.071Z,11.52
2022-11-05T04:26:23.459Z,10.18
2022-11-05T04:29:09.880Z,9.77
2022-11-05T04:31:37.195Z,11.32
2022-11-05T04:34:04.373Z,9.35
2022-11-05T04:36:31.251Z,10.60
2022-11-05T04:38:58.094Z,8.80
2022-11-05T04:41:25.271Z,10.82
2022-11-05T04:43:52.367Z,11.15
2022-11-05T04:46:19.232Z,10.82
2022-11-05T04:48:46.112Z,10.45
2022-11-05T04:51:13.204Z,10.23
2022-11-05T04:53:40.040Z,9.85
2022-11-05T04:56:18.504Z,10.48
2022-11-05T04:58:45.651Z,10.27
2022-11-05T05:01:14.065Z,9.88
2022-11-05T05:03:41.144Z,10.55
2022-11-05T05:06:08.113Z,11.95
2022-11-05T05:08:35.108Z,12.15
2022-11-05T05:11:06.679Z,11.88
2022-11-05T05:13:33.777Z,10.38
2022-11-05T05:16:04.727Z,13.52
2022-11-05T05:18:31.615Z,10.93
2022-11-05T05:21:17.293Z,9.23
2022-11-05T05:23:44.200Z,11.38
2022-11-05T05:26:11.083Z,11.80
2022-11-05T05:28:37.973Z,10.13
2022-11-05T05:31:05.013Z,10.18
2022-11-05T05:33:31.938Z,10.98
2022-11-05T05:35:58.983Z,9.65
2022-11-05T05:38:25.949Z,9.18
2022-11-05T05:40:52.901Z,9.05
2022-11-05T05:43:19.752Z,10.35
2022-11-05T05:45:46.677Z,11.52
2022-11-05T05:48:13.611Z,10.60
2022-11-05T05:50:40.489Z,9.90
2022-11-05T05:53:07.750Z,9.85
2022-11-05T05:55:34.804Z,10.65
2022-11-05T05:58:01.701Z,11.82
2022-11-05T06:00:28.567Z,10.02
2022-11-05T06:02:56.439Z,10.73
2022-11-05T06:05:23.371Z,10.05
2022-11-05T06:07:57.385Z,9.98
2022-11-05T06:10:24.830Z,11.30
2022-11-05T06:12:51.748Z,11.40
2022-11-05T06:15:18.641Z,8.57
2022-11-05T06:17:45.585Z,8.02
2022-11-05T06:20:13.132Z,7.65
2022-11-05T06:22:40.199Z,7.85
2022-11-05T06:25:07.507Z,8.50
2022-11-05T06:27:36.112Z,7.50
2022-11-05T06:30:04.715Z,7.88
2022-11-05T06:32:31.766Z,9.13
2022-11-05T06:34:58.651Z,8.60
2022-11-05T06:37:25.748Z,6.85
2022-11-05T06:39:52.647Z,8.48
2022-11-05T06:42:19.634Z,7.95
2022-11-05T06:44:46.787Z,9.48
2022-11-05T06:47:13.772Z,7.00
2022-11-05T06:49:40.679Z,7.05
2022-11-05T06:52:07.705Z,7.63
2022-11-05T06:54:34.568Z,8.45
2022-11-05T06:57:01.550Z,8.65
2022-11-05T06:59:28.455Z,6.78
2022-11-05T07:01:55.363Z,9.00
2022-11-05T07:04:22.295Z,8.60
2022-11-05T07:06:49.149Z,8.02
2022-11-05T07:09:16.047Z,7.65
2022-11-05T07:11:42.965Z,6.55
2022-11-05T07:14:09.969Z,7.25
2022-11-05T07:16:36.827Z,8.10
2022-11-05T07:19:03.963Z,6.63
2022-11-05T07:21:30.961Z,7.45
2022-11-05T07:23:57.844Z,7.57
2022-11-05T07:26:24.774Z,15.20
2022-11-05T07:28:51.735Z,7.20
2022-11-05T07:31:18.960Z,6.47
2022-11-05T07:33:45.826Z,8.80
2022-11-05T07:36:12.768Z,6.50
2022-11-05T07:38:40.035Z,6.75
2022-11-05T07:41:06.905Z,8.10
2022-11-05T07:43:33.751Z,8.27
2022-11-05T07:46:00.651Z,9.98
2022-11-05T07:48:27.567Z,10.27
2022-11-05T07:50:54.844Z,8.00
2022-11-05T07:53:21.753Z,6.78
2022-11-05T07:55:48.672Z,10.52
2022-11-05T07:58:15.575Z,7.50
2022-11-05T08:00:42.644Z,8.00
2022-11-05T08:03:14.727Z,7.90
2022-11-05T08:05:44.744Z,7.20
2022-11-05T08:08:13.187Z,6.22
2022-11-05T08:10:40.222Z,8.35
2022-11-05T08:13:07.474Z,8.57
2022-11-05T08:15:34.567Z,7.13
2022-11-05T08:18:03.234Z,11.25
2022-11-05T08:20:30.184Z,7.28
2022-11-05T08:22:57.326Z,9.13
2022-11-05T08:25:24.270Z,7.22
2022-11-05T08:27:58.710Z,8.63
2022-11-05T08:30:25.914Z,7.97
2022-11-05T08:32:57.104Z,6.57
2022-11-05T08:35:24.149Z,7.60
2022-11-05T08:37:51.008Z,10.30
2022-11-05T08:40:17.836Z,6.97
2022-11-05T08:42:44.755Z,8.88
2022-11-05T08:45:11.874Z,8.20
2022-11-05T08:47:38.744Z,8.48
2022-11-05T08:50:06.052Z,7.95
2022-11-05T08:52:33.007Z,8.80
2022-11-05T08:54:59.946Z,6.78
2022-11-05T08:57:27.398Z,7.72
2022-11-05T08:59:54.313Z,5.90
2022-11-05T09:02:21.328Z,8.75
2022-11-05T09:04:48.385Z,8.10
2022-11-05T09:07:15.481Z,8.70
2022-11-05T09:09:42.481Z,7.28
2022-11-05T09:12:13.219Z,9.15
2022-11-05T09:14:40.403Z,8.18
2022-11-05T09:17:20.175Z,6.75
2022-11-05T09:19:47.233Z,12.02
2022-11-05T09:22:14.267Z,7.90
2022-11-05T09:24:42.198Z,10.82
2022-11-05T09:27:18.749Z,7.28
2022-11-05T09:29:45.630Z,7.82
2022-11-05T09:32:12.659Z,7.97
2022-11-05T09:34:39.875Z,6.60
2022-11-05T09:37:06.829Z,7.72
2022-11-05T09:39:33.774Z,8.38
2022-11-05T09:42:02.966Z,7.60
2022-11-05T09:44:40.116Z,8.82
2022-11-05T09:47:11.117Z,8.45
2022-11-05T09:49:40.914Z,7.78
2022-11-05T09:52:13.893Z,8.02
2022-11-05T09:54:40.865Z,8.57
2022-11-05T09:57:11.292Z,7.55
2022-11-05T09:59:44.950Z,6.80
2022-11-05T10:02:20.706Z,6.85
2022-11-05T10:04:49.395Z,8.25
2022-11-05T10:07:20.336Z,8.80
2022-11-05T10:09:49.547Z,7.03
2022-11-05T10:12:34.869Z,8.52
2022-11-05T10:15:10.797Z,7.82
2022-11-05T10:17:39.300Z,7.55
2022-11-05T10:20:32.762Z,6.68
2022-11-05T10:23:17.299Z,8.07
2022-11-05T10:25:51.186Z,7.95
2022-11-05T10:28:20.806Z,8.38
2022-11-05T10:30:49.427Z,8.75
2022-11-05T10:33:20.015Z,6.93
2022-11-05T10:35:50.011Z,7.03
2022-11-05T10:38:17.155Z,9.38
2022-11-05T10:40:47.652Z,6.80
2022-11-05T10:44:03.123Z,7.20
2022-11-05T10:46:39.833Z,5.78
2022-11-05T10:49:18.902Z,6.20
2022-11-05T10:51:46.983Z,5.47
2022-11-05T10:54:22.059Z,5.70
2022-11-05T10:56:49.108Z,5.30
2022-11-05T10:59:23.301Z,4.97
2022-11-05T11:02:17.821Z,5.90
2022-11-05T11:04:45.618Z,5.60
2022-11-05T11:07:24.851Z,6.10
2022-11-05T11:09:51.986Z,7.40
2022-11-05T11:12:27.516Z,6.05
2022-11-05T11:15:16.979Z,6.47
2022-11-05T11:17:44.037Z,5.18
2022-11-05T11:20:20.497Z,6.13
2022-11-05T11:23:17.022Z,5.55
2022-11-05T11:25:50.400Z,6.88
2022-11-05T11:28:20.809Z,7.05
2022-11-05T11:30:49.815Z,5.20
2022-11-05T11:33:19.578Z,6.72
2022-11-05T11:35:46.614Z,7.43
2022-11-05T11:38:14.912Z,7.63
2022-11-05T11:40:42.012Z,6.00
2022-11-05T11:43:36.223Z,7.85
2022-11-05T11:46:09.888Z,6.75
2022-11-05T11:48:40.333Z,6.47
2022-11-05T11:51:34.253Z,8.43
2022-11-05T11:54:01.501Z,9.95
2022-11-05T11:56:29.207Z,7.32
2022-11-05T11:59:02.948Z,9.43
2022-11-05T12:01:54.035Z,8.35
2022-11-05T12:04:39.700Z,7.10
2022-11-05T12:07:15.783Z,8.65
2022-11-05T12:10:20.331Z,7.20
2022-11-05T12:13:06.098Z,8.10
2022-11-05T12:15:56.389Z,9.18
2022-11-05T12:18:47.908Z,7.38
2022-11-05T12:21:52.210Z,9.48
2022-11-05T12:24:39.010Z,7.47
2022-11-05T12:27:14.974Z,7.80
2022-11-05T12:30:03.687Z,7.32
2022-11-05T12:32:42.700Z,8.98
2022-11-05T12:35:27.836Z,7.05
2022-11-05T12:38:12.066Z,10.75
2022-11-05T12:41:05.859Z,9.90
2022-11-05T12:44:00.348Z,8.82
2022-11-05T12:46:33.491Z,10.20
2022-11-05T12:49:15.419Z,9.57
2022-11-05T12:54:34.111Z,13.07
2022-11-05T12:57:03.686Z,12.85
2022-11-05T12:59:40.140Z,9.93
2022-11-05T13:02:16.222Z,9.63
2022-11-05T13:04:51.476Z,10.40
2022-11-05T13:07:32.414Z,10.60
2022-11-05T13:10:40.158Z,12.98
2022-11-05T13:14:00.263Z,11.35
2022-11-05T13:16:36.567Z,12.85
2022-11-05T13:19:12.172Z,9.25
2022-11-05T13:21:39.613Z,7.60
2022-11-05T13:24:11.847Z,13.07
2022-11-05T13:27:16.038Z,10.02
2022-11-05T13:29:48.862Z,7.78
2022-11-05T13:32:24.694Z,10.82
2022-11-05T13:34:54.577Z,11.23
2022-11-05T13:37:50.136Z,10.75
2022-11-05T13:40:20.314Z,11.32
2022-11-05T13:42:58.482Z,9.93
2022-11-05T13:45:49.432Z,11.20
2022-11-05T13:48:32.514Z,7.97
2022-11-05T13:51:10.971Z,9.90
2022-11-05T13:53:53.073Z,10.60
2022-11-05T13:56:58.002Z,9.48
2022-11-05T13:59:52.233Z,8.15
2022-11-05T14:02:21.719Z,12.52
2022-11-05T14:05:00.712Z,11.05
2022-11-05T14:07:29.607Z,9.40
2022-11-05T14:10:10.025Z,10.00
2022-11-05T14:12:38.336Z,8.93
2022-11-05T14:15:15.535Z,8.07
2022-11-05T14:18:01.262Z,8.13
2022-11-05T14:20:31.371Z,10.48
2022-11-05T14:23:23.461Z,7.95
2022-11-05T14:28:35.120Z,9.45
2022-11-05T14:31:47.488Z,10.00
2022-11-05T14:34:16.532Z,9.20
2022-11-05T14:36:43.873Z,10.02
2022-11-05T14:39:26.727Z,9.88
2022-11-05T14:42:12.556Z,11.00
2022-11-05T14:44:55.878Z,11.73
2022-11-05T14:47:23.519Z,11.55
2022-11-05T14:49:57.233Z,14.45
2022-11-05T14:52:24.467Z,11.52
2022-11-05T14:54:52.784Z,10.07
2022-11-05T14:57:42.010Z,10.13
2022-11-05T15:00:40.463Z,7.95
2022-11-05T15:03:47.086Z,11.70
2022-11-05T15:06:36.614Z,10.60
2022-11-05T15:09:03.482Z,10.57
2022-11-05T15:11:32.950Z,8.88
2022-11-05T15:14:06.090Z,10.98
2022-11-05T15:16:49.069Z,13.93
2022-11-05T15:19:29.160Z,9.65
2022-11-05T15:21:57.840Z,13.55
2022-11-05T15:24:27.524Z,11.45
2022-11-05T15:27:04.797Z,10.27
2022-11-05T15:29:31.900Z,10.23
2022-11-05T15:31:59.277Z,9.75
2022-11-05T15:34:33.069Z,8.70
2022-11-05T15:37:09.793Z,8.82
2022-11-05T15:39:41.513Z,11.07
2022-11-05T15:44:52.151Z,10.32
2022-11-05T15:47:19.434Z,12.88
2022-11-05T15:49:55.176Z,12.02
2022-11-05T15:52:24.293Z,10.35
2022-11-05T15:55:13.233Z,10.68
2022-11-05T15:57:51.790Z,10.00
2022-11-05T16:00:29.760Z,8.80
2022-11-05T16:03:18.425Z,9.68
2022-11-05T16:05:46.759Z,9.40
2022-11-05T16:08:22.480Z,9.65
2022-11-05T16:10:51.771Z,8.27
2022-11-05T16:13:39.387Z,8.15
2022-11-05T16:22:50.552Z,10.32
2022-11-05T16:25:42.189Z,10.50
2022-11-05T16:28:24.914Z,11.57
2022-11-05T16:31:01.791Z,8.57
2022-11-05T16:33:33.474Z,8.48
2022-11-05T16:36:00.387Z,9.55
2022-11-05T16:38:27.618Z,8.98
2022-11-05T16:40:54.586Z,8.77
2022-11-05T16:43:23.452Z,7.22
2022-11-05T16:45:52.991Z,6.75
2022-11-05T16:48:20.068Z,7.28
2022-11-05T16:50:47.022Z,6.88
2022-11-05T16:53:14.028Z,7.70
2022-11-05T16:55:41.860Z,7.68
2022-11-05T16:58:19.992Z,8.52
2022-11-05T17:00:47.818Z,7.32
2022-11-05T17:03:14.999Z,6.20
2022-11-05T17:05:41.876Z,6.20
2022-11-05T17:08:09.215Z,5.93
2022-11-05T17:10:36.166Z,6.93
2022-11-05T17:13:03.202Z,6.40
2022-11-05T17:15:31.753Z,5.90
2022-11-05T17:17:59.106Z,9.48
2022-11-05T17:20:39.836Z,9.80
2022-11-05T17:23:26.829Z,5.85
2022-11-05T17:25:55.383Z,5.43
2022-11-05T17:28:22.474Z,6.65
2022-11-05T17:30:52.650Z,6.03
2022-11-05T17:33:20.484Z,6.03
2022-11-05T17:35:47.472Z,8.00
2022-11-05T17:38:14.701Z,7.15
2022-11-05T17:40:41.619Z,6.57
2022-11-05T17:43:08.764Z,6.43
2022-11-05T17:45:50.242Z,6.95
2022-11-05T17:48:17.392Z,9.05
2022-11-05T17:50:46.557Z,7.68
2022-11-05T17:53:14.449Z,8.07
2022-11-05T17:55:42.498Z,8.98
2022-11-05T17:58:09.537Z,9.73
2022-11-05T18:00:36.528Z,10.45
2022-11-05T18:03:03.804Z,12.85
2022-11-05T18:05:31.025Z,10.98
2022-11-05T18:08:00.775Z,9.68
2022-11-05T18:10:27.676Z,9.70
2022-11-05T18:12:54.576Z,8.77
2022-11-05T18:15:21.532Z,9.73
2022-11-05T18:17:48.484Z,10.65
2022-11-05T18:20:19.235Z,8.88
2022-11-05T18:22:48.237Z,9.55
2022-11-05T18:25:15.183Z,8.10
2022-11-05T18:27:42.165Z,9.20
2022-11-05T18:30:10.141Z,9.70
2022-11-05T18:32:37.182Z,10.35
2022-11-05T18:35:04.314Z,9.95
2022-11-05T18:37:31.278Z,11.75
2022-11-05T18:39:58.181Z,10.02
2022-11-05T18:42:25.470Z,9.98
2022-11-05T18:44:52.413Z,10.07
2022-11-05T18:47:19.417Z,10.82
2022-11-05T18:49:46.291Z,14.02
2022-11-05T18:52:13.283Z,12.80
2022-11-05T18:54:40.220Z,11.15
2022-11-05T18:57:07.137Z,9.40
2022-11-05T18:59:39.067Z,10.95
2022-11-05T19:02:07.724Z,10.60
2022-11-05T19:04:46.878Z,10.90
2022-11-05T19:07:17.736Z,10.68
2022-11-05T19:09:44.979Z,10.45
2022-11-05T19:12:11.943Z,11.27
2022-11-05T19:14:38.837Z,13.90
2022-11-05T19:17:05.913Z,11.68
2022-11-05T19:19:33.084Z,11.82
2022-11-05T19:22:00.629Z,9.35
2022-11-05T19:24:28.040Z,8.75
2022-11-05T19:26:55.137Z,10.32
2022-11-05T19:29:22.071Z,9.45
2022-11-05T19:31:49.001Z,10.63
2022-11-05T19:34:16.119Z,14.70
2022-11-05T19:36:43.401Z,11.20
2022-11-05T19:39:13.378Z,10.32
2022-11-05T19:41:40.499Z,11.68
2022-11-05T19:44:07.505Z,13.32
2022-11-05T19:46:34.462Z,21.50
2022-11-05T19:49:01.497Z,15.82
2022-11-05T19:51:30.278Z,10.80
2022-11-05T19:53:58.064Z,9.82
2022-11-05T19:56:27.093Z,11.90
2022-11-05T19:58:54.402Z,10.93
2022-11-05T20:01:22.556Z,11.85
2022-11-05T20:03:49.886Z,15.13
2022-11-05T20:06:28.570Z,11.90
2022-11-05T20:09:20.548Z,11.40
2022-11-05T20:11:48.352Z,11.60
2022-11-05T20:14:15.467Z,13.55
2022-11-05T20:16:43.187Z,13.23
2022-11-05T20:19:11.576Z,9.23
2022-11-05T20:21:38.616Z,13.65
2022-11-05T20:24:06.173Z,13.07
2022-11-05T20:26:33.389Z,14.57
2022-11-05T20:29:00.336Z,15.05
2022-11-05T20:31:27.291Z,14.73
2022-11-05T20:33:54.566Z,16.63
2022-11-05T20:36:22.524Z,11.75
2022-11-05T20:38:55.376Z,11.63
2022-11-05T20:41:22.477Z,11.50
2022-11-05T20:43:49.720Z,11.85
2022-11-05T20:46:17.972Z,11.25
2022-11-05T20:48:45.325Z,10.13
2022-11-05T20:51:17.507Z,10.68
2022-11-05T20:53:46.150Z,9.75
2022-11-05T20:56:20.602Z,8.85
2022-11-05T20:58:47.497Z,8.88
2022-11-05T21:01:16.340Z,9.68
2022-11-05T21:03:44.381Z,9.27
2022-11-05T21:06:11.338Z,11.18
2022-11-05T21:08:38.244Z,17.50
2022-11-05T21:11:05.429Z,11.45
2022-11-05T21:13:33.104Z,13.38
2022-11-05T21:16:00.377Z,13.18
2022-11-05T21:18:29.213Z,16.15
2022-11-05T21:20:56.247Z,16.27
2022-11-05T21:23:23.238Z,14.73
2022-11-05T21:25:50.171Z,14.50
2022-11-05T21:28:17.064Z,15.00
2022-11-05T21:30:45.921Z,13.05
2022-11-05T21:33:13.952Z,17.30
2022-11-05T21:35:43.860Z,14.80
2022-11-05T21:38:11.993Z,14.75
2022-11-05T21:40:39.373Z,11.93
2022-11-05T21:43:06.408Z,16.55
2022-11-05T21:45:33.311Z,13.52
2022-11-05T21:48:00.200Z,16.00
2022-11-05T21:50:45.692Z,13.20
2022-11-05T21:53:32.855Z,9.32
2022-11-05T21:56:18.743Z,10.48
2022-11-05T21:59:04.287Z,8.90
2022-11-05T22:01:32.441Z,11.25
2022-11-05T22:04:03.003Z,12.35
2022-11-05T22:06:33.019Z,15.63
2022-11-05T22:09:00.002Z,13.68
2022-11-05T22:11:26.863Z,11.90
2022-11-05T22:13:53.902Z,12.35
2022-11-05T22:16:20.954Z,12.13
2022-11-05T22:18:47.831Z,12.90
2022-11-05T22:21:20.906Z,15.38
2022-11-05T22:23:47.837Z,14.50
2022-11-05T22:26:14.830Z,14.30
2022-11-05T22:28:41.957Z,13.65
2022-11-05T22:31:15.675Z,13.73
2022-11-05T22:33:42.834Z,15.85
2022-11-05T22:36:10.374Z,12.20
2022-11-05T22:38:37.398Z,12.23
2022-11-05T22:41:11.769Z,12.57
2022-11-05T22:43:38.807Z,12.45
2022-11-05T22:46:10.369Z,12.15
2022-11-05T22:48:37.806Z,11.52
2022-11-05T22:51:05.843Z,11.65
2022-11-05T22:53:33.990Z,11.02
2022-11-05T22:56:09.096Z,11.38
2022-11-05T22:58:35.999Z,16.02
2022-11-05T23:01:03.217Z,11.18
2022-11-05T23:03:30.484Z,9.23
2022-11-05T23:05:58.571Z,9.18
2022-11-05T23:08:43.973Z,6.60
2022-11-05T23:11:36.028Z,5.72
2022-11-05T23:16:48.499Z,5.82
2022-11-05T23:19:34.134Z,4.88
2022-11-05T23:22:19.920Z,4.18
2022-11-05T23:24:47.481Z,4.30
2022-11-05T23:27:14.563Z,4.40
2022-11-05T23:29:41.485Z,4.22
2022-11-05T23:32:27.106Z,3.15
2022-11-05T23:34:55.070Z,4.60
2022-11-05T23:37:41.472Z,4.97
2022-11-05T23:40:10.562Z,5.25
2022-11-05T23:42:56.161Z,3.63
2022-11-05T23:45:41.588Z,5.07
2022-11-05T23:48:18.511Z,4.60
2022-11-05T23:50:56.257Z,4.78
2022-11-05T23:53:23.442Z,4.35
2022-11-05T23:55:50.408Z,4.40
2022-11-05T23:58:17.443Z,3.72
